sensor_id;sensor_type;location;lat;lon;timestamp;pressure;altitude;pressure_sealevel;temperature;humidity
10958;BME280;5531;42.570;23.676;2023-04-16T00:00:49;91494.13;;;10.57;71.75
10958;BME280;5531;42.570;23.676;2023-04-16T00:03:19;91496.72;;;10.57;72.34
10958;BME280;5531;42.570;23.676;2023-04-16T00:05:48;91483.66;;;10.51;75.15
10958;BME280;5531;42.570;23.676;2023-04-16T00:08:20;91485.75;;;10.42;75.94
10958;BME280;5531;42.570;23.676;2023-04-16T00:10:53;91489.16;;;10.42;76.58
10958;BME280;5531;42.570;23.676;2023-04-16T00:13:22;91498.66;;;10.37;77.54
10958;BME280;5531;42.570;23.676;2023-04-16T00:15:52;91491.59;;;10.31;78.51
10958;BME280;5531;42.570;23.676;2023-04-16T00:18:21;91492.81;;;10.35;77.86
10958;BME280;5531;42.570;23.676;2023-04-16T00:20:51;91488.38;;;10.35;78.46
10958;BME280;5531;42.570;23.676;2023-04-16T00:23:20;91496.44;;;10.34;78.14
10958;BME280;5531;42.570;23.676;2023-04-16T00:25:52;91488.22;;;10.23;76.82
10958;BME280;5531;42.570;23.676;2023-04-16T00:28:24;91484.38;;;10.19;78.61
10958;BME280;5531;42.570;23.676;2023-04-16T00:30:53;91485.44;;;10.05;77.29
10958;BME280;5531;42.570;23.676;2023-04-16T00:33:23;91483.47;;;9.94;78.38
10958;BME280;5531;42.570;23.676;2023-04-16T00:35:52;91489.13;;;9.84;78.39
10958;BME280;5531;42.570;23.676;2023-04-16T00:38:21;91485.94;;;9.68;78.93
10958;BME280;5531;42.570;23.676;2023-04-16T00:40:52;91484.72;;;9.71;78.38
10958;BME280;5531;42.570;23.676;2023-04-16T00:43:24;91477.69;;;9.71;78.85
10958;BME280;5531;42.570;23.676;2023-04-16T00:45:55;91485.13;;;9.68;80.63
10958;BME280;5531;42.570;23.676;2023-04-16T00:48:25;91483.97;;;9.44;82.00
10958;BME280;5531;42.570;23.676;2023-04-16T00:50:56;91479.34;;;9.46;82.66
10958;BME280;5531;42.570;23.676;2023-04-16T00:53:26;91471.09;;;9.35;84.07
10958;BME280;5531;42.570;23.676;2023-04-16T00:55:58;91476.72;;;9.32;84.59
10958;BME280;5531;42.570;23.676;2023-04-16T00:58:27;91479.13;;;9.21;83.74
10958;BME280;5531;42.570;23.676;2023-04-16T01:00:58;91481.34;;;8.90;85.31
10958;BME280;5531;42.570;23.676;2023-04-16T01:03:36;91475.09;;;8.78;86.55
10958;BME280;5531;42.570;23.676;2023-04-16T01:06:06;91470.88;;;8.70;87.81
10958;BME280;5531;42.570;23.676;2023-04-16T01:08:35;91466.06;;;8.80;88.28
10958;BME280;5531;42.570;23.676;2023-04-16T01:11:08;91469.47;;;8.68;87.93
10958;BME280;5531;42.570;23.676;2023-04-16T01:13:37;91471.03;;;8.55;87.08
10958;BME280;5531;42.570;23.676;2023-04-16T01:16:07;91467.81;;;8.53;85.12
10958;BME280;5531;42.570;23.676;2023-04-16T01:18:37;91466.44;;;8.57;83.99
10958;BME280;5531;42.570;23.676;2023-04-16T01:21:08;91467.03;;;8.59;83.35
10958;BME280;5531;42.570;23.676;2023-04-16T01:23:37;91473.88;;;8.60;83.41
10958;BME280;5531;42.570;23.676;2023-04-16T01:26:06;91468.22;;;8.57;84.23
10958;BME280;5531;42.570;23.676;2023-04-16T01:28:35;91467.81;;;8.47;85.62
10958;BME280;5531;42.570;23.676;2023-04-16T01:31:04;91465.41;;;8.52;83.65
10958;BME280;5531;42.570;23.676;2023-04-16T01:33:33;91465.59;;;8.50;83.40
10958;BME280;5531;42.570;23.676;2023-04-16T01:36:03;91462.78;;;8.52;82.50
10958;BME280;5531;42.570;23.676;2023-04-16T01:38:34;91464.41;;;8.46;82.02
10958;BME280;5531;42.570;23.676;2023-04-16T01:41:03;91470.38;;;8.40;82.92
10958;BME280;5531;42.570;23.676;2023-04-16T01:43:32;91464.94;;;8.35;85.63
10958;BME280;5531;42.570;23.676;2023-04-16T01:46:12;91463.31;;;8.27;85.54
10958;BME280;5531;42.570;23.676;2023-04-16T01:48:41;91462.72;;;8.25;85.86
10958;BME280;5531;42.570;23.676;2023-04-16T01:51:11;91459.06;;;8.19;86.96
10958;BME280;5531;42.570;23.676;2023-04-16T01:53:42;91468.09;;;8.10;87.18
10958;BME280;5531;42.570;23.676;2023-04-16T01:56:11;91448.81;;;8.11;86.89
10958;BME280;5531;42.570;23.676;2023-04-16T01:58:40;91450.63;;;8.11;87.88
10958;BME280;5531;42.570;23.676;2023-04-16T02:01:11;91450.81;;;8.09;89.89
10958;BME280;5531;42.570;23.676;2023-04-16T02:03:40;91450.81;;;8.16;92.14
10958;BME280;5531;42.570;23.676;2023-04-16T02:06:09;91456.25;;;8.21;92.16
10958;BME280;5531;42.570;23.676;2023-04-16T02:08:42;91448.63;;;8.19;92.23
10958;BME280;5531;42.570;23.676;2023-04-16T02:11:11;91446.59;;;8.08;93.12
10958;BME280;5531;42.570;23.676;2023-04-16T02:13:40;91452.44;;;8.10;94.30
10958;BME280;5531;42.570;23.676;2023-04-16T02:16:09;91450.00;;;8.08;94.65
10958;BME280;5531;42.570;23.676;2023-04-16T02:18:38;91447.22;;;8.10;95.53
10958;BME280;5531;42.570;23.676;2023-04-16T02:21:07;91446.59;;;8.15;94.89
10958;BME280;5531;42.570;23.676;2023-04-16T02:23:36;91445.41;;;8.11;96.18
10958;BME280;5531;42.570;23.676;2023-04-16T02:26:08;91444.41;;;8.12;96.40
10958;BME280;5531;42.570;23.676;2023-04-16T02:28:38;91443.75;;;8.03;96.60
10958;BME280;5531;42.570;23.676;2023-04-16T02:31:07;91442.34;;;8.00;97.24
10958;BME280;5531;42.570;23.676;2023-04-16T02:33:36;91444.78;;;8.02;97.11
10958;BME280;5531;42.570;23.676;2023-04-16T02:36:06;91433.94;;;8.05;98.38
10958;BME280;5531;42.570;23.676;2023-04-16T02:38:35;91427.72;;;8.06;98.52
10958;BME280;5531;42.570;23.676;2023-04-16T02:41:05;91420.28;;;8.10;98.10
10958;BME280;5531;42.570;23.676;2023-04-16T02:43:36;91427.31;;;8.09;98.25
10958;BME280;5531;42.570;23.676;2023-04-16T02:46:05;91436.75;;;8.03;98.87
10958;BME280;5531;42.570;23.676;2023-04-16T02:48:34;91424.50;;;7.97;98.95
10958;BME280;5531;42.570;23.676;2023-04-16T02:51:03;91432.31;;;7.97;98.66
10958;BME280;5531;42.570;23.676;2023-04-16T02:53:33;91427.69;;;7.99;97.97
10958;BME280;5531;42.570;23.676;2023-04-16T02:56:02;91425.88;;;8.00;98.00
10958;BME280;5531;42.570;23.676;2023-04-16T02:58:31;91422.06;;;7.96;97.54
10958;BME280;5531;42.570;23.676;2023-04-16T03:01:03;91422.66;;;7.91;98.18
10958;BME280;5531;42.570;23.676;2023-04-16T03:03:32;91424.84;;;7.87;98.74
10958;BME280;5531;42.570;23.676;2023-04-16T03:06:01;91422.06;;;7.89;98.71
10958;BME280;5531;42.570;23.676;2023-04-16T03:08:30;91431.25;;;7.85;98.49
10958;BME280;5531;42.570;23.676;2023-04-16T03:10:59;91423.44;;;7.85;99.25
10958;BME280;5531;42.570;23.676;2023-04-16T03:13:28;91425.84;;;7.86;99.10
10958;BME280;5531;42.570;23.676;2023-04-16T03:15:57;91418.63;;;7.88;98.94
10958;BME280;5531;42.570;23.676;2023-04-16T03:18:28;91420.41;;;7.81;98.98
10958;BME280;5531;42.570;23.676;2023-04-16T03:20:57;91423.19;;;7.73;98.88
10958;BME280;5531;42.570;23.676;2023-04-16T03:23:26;91424.19;;;7.79;98.84
10958;BME280;5531;42.570;23.676;2023-04-16T03:25:55;91428.78;;;7.70;98.93
10958;BME280;5531;42.570;23.676;2023-04-16T03:28:24;91424.94;;;7.66;99.00
10958;BME280;5531;42.570;23.676;2023-04-16T03:30:53;91423.75;;;7.68;98.47
10958;BME280;5531;42.570;23.676;2023-04-16T03:33:22;91426.19;;;7.70;98.35
10958;BME280;5531;42.570;23.676;2023-04-16T03:35:57;91431.16;;;7.65;98.75
10958;BME280;5531;42.570;23.676;2023-04-16T03:38:26;91426.91;;;7.57;99.50
10958;BME280;5531;42.570;23.676;2023-04-16T03:40:55;91427.28;;;7.54;98.84
10958;BME280;5531;42.570;23.676;2023-04-16T03:43:24;91427.09;;;7.56;98.76
10958;BME280;5531;42.570;23.676;2023-04-16T03:45:53;91429.72;;;7.56;98.84
10958;BME280;5531;42.570;23.676;2023-04-16T03:48:22;91431.34;;;7.57;99.18
10958;BME280;5531;42.570;23.676;2023-04-16T03:50:51;91428.50;;;7.51;98.48
10958;BME280;5531;42.570;23.676;2023-04-16T03:53:23;91424.50;;;7.56;97.93
10958;BME280;5531;42.570;23.676;2023-04-16T03:55:52;91436.91;;;7.47;98.94
10958;BME280;5531;42.570;23.676;2023-04-16T03:58:21;91430.47;;;7.49;98.47
10958;BME280;5531;42.570;23.676;2023-04-16T04:00:52;91435.66;;;7.43;99.00
10958;BME280;5531;42.570;23.676;2023-04-16T04:03:21;91436.09;;;7.46;98.74
10958;BME280;5531;42.570;23.676;2023-04-16T04:05:50;91440.69;;;7.44;98.69
10958;BME280;5531;42.570;23.676;2023-04-16T04:08:19;91447.72;;;7.50;98.50
10958;BME280;5531;42.570;23.676;2023-04-16T04:10:51;91441.94;;;7.55;98.58
10958;BME280;5531;42.570;23.676;2023-04-16T04:13:20;91442.94;;;7.54;98.20
10958;BME280;5531;42.570;23.676;2023-04-16T04:15:49;91442.13;;;7.53;98.19
10958;BME280;5531;42.570;23.676;2023-04-16T04:18:18;91456.19;;;7.59;98.33
10958;BME280;5531;42.570;23.676;2023-04-16T04:20:47;91452.03;;;7.65;97.63
10958;BME280;5531;42.570;23.676;2023-04-16T04:23:16;91462.22;;;7.60;98.30
10958;BME280;5531;42.570;23.676;2023-04-16T04:25:45;91460.84;;;7.64;98.64
10958;BME280;5531;42.570;23.676;2023-04-16T04:28:17;91456.84;;;7.68;98.17
10958;BME280;5531;42.570;23.676;2023-04-16T04:30:46;91467.28;;;7.68;98.48
10958;BME280;5531;42.570;23.676;2023-04-16T04:33:15;91457.47;;;7.70;99.19
10958;BME280;5531;42.570;23.676;2023-04-16T04:35:44;91462.28;;;7.73;98.46
10958;BME280;5531;42.570;23.676;2023-04-16T04:38:13;91466.53;;;7.74;98.26
10958;BME280;5531;42.570;23.676;2023-04-16T04:40:44;91462.31;;;7.80;98.28
10958;BME280;5531;42.570;23.676;2023-04-16T04:43:13;91463.75;;;7.82;97.16
10958;BME280;5531;42.570;23.676;2023-04-16T04:45:45;91460.78;;;7.92;96.93
10958;BME280;5531;42.570;23.676;2023-04-16T04:48:14;91472.63;;;7.95;96.56
10958;BME280;5531;42.570;23.676;2023-04-16T04:50:44;91462.22;;;8.01;97.24
10958;BME280;5531;42.570;23.676;2023-04-16T04:53:13;91467.22;;;8.03;97.24
10958;BME280;5531;42.570;23.676;2023-04-16T04:55:42;91471.88;;;8.14;95.33
10958;BME280;5531;42.570;23.676;2023-04-16T04:58:11;91469.28;;;8.14;95.59
10958;BME280;5531;42.570;23.676;2023-04-16T05:00:40;91461.47;;;8.14;94.80
10958;BME280;5531;42.570;23.676;2023-04-16T05:03:18;91464.06;;;8.14;95.29
10958;BME280;5531;42.570;23.676;2023-04-16T05:05:48;91458.25;;;8.19;94.04
10958;BME280;5531;42.570;23.676;2023-04-16T05:08:17;91468.09;;;8.17;94.41
10958;BME280;5531;42.570;23.676;2023-04-16T05:10:46;91465.72;;;8.22;94.26
10958;BME280;5531;42.570;23.676;2023-04-16T05:13:15;91463.69;;;8.24;92.88
10958;BME280;5531;42.570;23.676;2023-04-16T05:15:44;91448.03;;;8.24;93.56
10958;BME280;5531;42.570;23.676;2023-04-16T05:18:15;91462.72;;;8.25;91.13
10958;BME280;5531;42.570;23.676;2023-04-16T05:20:44;91458.09;;;8.34;93.45
10958;BME280;5531;42.570;23.676;2023-04-16T05:23:13;91462.94;;;8.37;90.01
10958;BME280;5531;42.570;23.676;2023-04-16T05:25:43;91459.38;;;8.44;91.36
10958;BME280;5531;42.570;23.676;2023-04-16T05:28:12;91467.44;;;8.56;91.88
10958;BME280;5531;42.570;23.676;2023-04-16T05:30:40;91463.44;;;8.67;91.72
10958;BME280;5531;42.570;23.676;2023-04-16T05:33:09;91465.66;;;8.70;89.99
10958;BME280;5531;42.570;23.676;2023-04-16T05:35:41;91470.25;;;8.81;89.62
10958;BME280;5531;42.570;23.676;2023-04-16T05:38:10;91471.50;;;8.86;89.64
10958;BME280;5531;42.570;23.676;2023-04-16T05:40:39;91470.69;;;8.92;87.36
10958;BME280;5531;42.570;23.676;2023-04-16T05:43:08;91466.25;;;9.12;87.72
10958;BME280;5531;42.570;23.676;2023-04-16T05:45:37;91464.88;;;9.23;86.35
10958;BME280;5531;42.570;23.676;2023-04-16T05:48:06;91470.69;;;9.45;86.91
10958;BME280;5531;42.570;23.676;2023-04-16T05:50:36;91467.25;;;9.65;84.49
10958;BME280;5531;42.570;23.676;2023-04-16T05:53:08;91467.38;;;9.83;85.88
10958;BME280;5531;42.570;23.676;2023-04-16T05:55:38;91464.38;;;9.86;85.35
10958;BME280;5531;42.570;23.676;2023-04-16T05:58:07;91468.38;;;9.89;81.61
10958;BME280;5531;42.570;23.676;2023-04-16T06:00:36;91469.22;;;9.83;82.07
10958;BME280;5531;42.570;23.676;2023-04-16T06:03:05;91468.16;;;9.90;81.68
10958;BME280;5531;42.570;23.676;2023-04-16T06:05:34;91478.84;;;9.89;82.93
10958;BME280;5531;42.570;23.676;2023-04-16T06:08:03;91479.56;;;10.16;83.76
10958;BME280;5531;42.570;23.676;2023-04-16T06:10:35;91478.31;;;10.25;81.49
10958;BME280;5531;42.570;23.676;2023-04-16T06:13:04;91476.50;;;10.33;80.48
10958;BME280;5531;42.570;23.676;2023-04-16T06:15:33;91472.69;;;10.35;79.54
10958;BME280;5531;42.570;23.676;2023-04-16T06:18:02;91468.00;;;10.44;79.46
10958;BME280;5531;42.570;23.676;2023-04-16T06:20:31;91470.69;;;10.69;79.07
10958;BME280;5531;42.570;23.676;2023-04-16T06:23:01;91470.72;;;10.94;80.89
10958;BME280;5531;42.570;23.676;2023-04-16T06:25:30;91466.75;;;11.17;78.34
10958;BME280;5531;42.570;23.676;2023-04-16T06:28:02;91466.19;;;11.33;78.93
10958;BME280;5531;42.570;23.676;2023-04-16T06:30:31;91473.13;;;11.28;77.46
10958;BME280;5531;42.570;23.676;2023-04-16T06:33:00;91468.75;;;11.40;78.01
10958;BME280;5531;42.570;23.676;2023-04-16T06:35:29;91468.19;;;11.38;78.46
10958;BME280;5531;42.570;23.676;2023-04-16T06:37:58;91473.97;;;11.22;77.95
10958;BME280;5531;42.570;23.676;2023-04-16T06:40:27;91466.63;;;11.05;79.08
10958;BME280;5531;42.570;23.676;2023-04-16T06:42:56;91471.19;;;11.16;81.16
10958;BME280;5531;42.570;23.676;2023-04-16T06:45:28;91477.16;;;11.24;82.41
10958;BME280;5531;42.570;23.676;2023-04-16T06:47:57;91471.50;;;11.27;80.54
10958;BME280;5531;42.570;23.676;2023-04-16T06:50:28;91475.19;;;11.19;78.35
10958;BME280;5531;42.570;23.676;2023-04-16T06:52:57;91481.88;;;11.15;79.53
10958;BME280;5531;42.570;23.676;2023-04-16T06:55:26;91480.06;;;11.41;78.52
10958;BME280;5531;42.570;23.676;2023-04-16T06:57:55;91480.69;;;11.61;78.45
10958;BME280;5531;42.570;23.676;2023-04-16T07:00:24;91478.53;;;11.77;78.59
10958;BME280;5531;42.570;23.676;2023-04-16T07:02:56;91472.13;;;11.72;77.66
10958;BME280;5531;42.570;23.676;2023-04-16T07:05:25;91481.50;;;11.62;75.13
10958;BME280;5531;42.570;23.676;2023-04-16T07:07:54;91473.41;;;11.63;75.16
10958;BME280;5531;42.570;23.676;2023-04-16T07:10:23;91476.31;;;11.99;77.18
10958;BME280;5531;42.570;23.676;2023-04-16T07:12:53;91473.09;;;12.15;74.40
10958;BME280;5531;42.570;23.676;2023-04-16T07:15:22;91473.53;;;12.12;75.45
10958;BME280;5531;42.570;23.676;2023-04-16T07:17:51;91480.44;;;11.88;75.01
10958;BME280;5531;42.570;23.676;2023-04-16T07:20:23;91485.88;;;11.68;74.02
10958;BME280;5531;42.570;23.676;2023-04-16T07:22:52;91479.75;;;11.55;75.10
10958;BME280;5531;42.570;23.676;2023-04-16T07:25:21;91488.03;;;11.52;75.23
10958;BME280;5531;42.570;23.676;2023-04-16T07:27:50;91477.53;;;11.27;77.12
10958;BME280;5531;42.570;23.676;2023-04-16T07:30:19;91479.38;;;11.27;77.06
10958;BME280;5531;42.570;23.676;2023-04-16T07:32:48;91481.00;;;11.28;76.66
10958;BME280;5531;42.570;23.676;2023-04-16T07:35:23;91478.91;;;11.55;77.86
10958;BME280;5531;42.570;23.676;2023-04-16T07:37:52;91475.00;;;11.64;76.57
10958;BME280;5531;42.570;23.676;2023-04-16T07:40:21;91470.78;;;11.63;75.84
10958;BME280;5531;42.570;23.676;2023-04-16T07:42:51;91467.66;;;11.73;75.34
10958;BME280;5531;42.570;23.676;2023-04-16T07:45:20;91471.25;;;11.79;76.90
10958;BME280;5531;42.570;23.676;2023-04-16T07:47:49;91468.69;;;11.90;74.42
10958;BME280;5531;42.570;23.676;2023-04-16T07:50:18;91465.31;;;12.08;76.69
10958;BME280;5531;42.570;23.676;2023-04-16T07:52:50;91468.53;;;12.29;74.19
10958;BME280;5531;42.570;23.676;2023-04-16T07:55:19;91467.13;;;12.26;73.65
10958;BME280;5531;42.570;23.676;2023-04-16T07:57:49;91457.19;;;12.28;73.76
10958;BME280;5531;42.570;23.676;2023-04-16T08:00:18;91453.75;;;12.46;73.35
10958;BME280;5531;42.570;23.676;2023-04-16T08:02:47;91461.41;;;12.48;72.59
10958;BME280;5531;42.570;23.676;2023-04-16T08:05:16;91459.47;;;12.74;73.47
10958;BME280;5531;42.570;23.676;2023-04-16T08:07:46;91461.88;;;13.17;72.14
10958;BME280;5531;42.570;23.676;2023-04-16T08:10:18;91464.28;;;13.31;68.18
10958;BME280;5531;42.570;23.676;2023-04-16T08:12:47;91460.66;;;13.32;67.44
10958;BME280;5531;42.570;23.676;2023-04-16T08:15:16;91463.44;;;13.49;69.06
10958;BME280;5531;42.570;23.676;2023-04-16T08:17:45;91455.53;;;13.61;66.47
10958;BME280;5531;42.570;23.676;2023-04-16T08:20:15;91452.09;;;13.72;67.05
10958;BME280;5531;42.570;23.676;2023-04-16T08:22:44;91457.16;;;13.97;68.11
10958;BME280;5531;42.570;23.676;2023-04-16T08:25:13;91448.56;;;14.02;63.35
10958;BME280;5531;42.570;23.676;2023-04-16T08:27:45;91448.81;;;14.29;65.14
10958;BME280;5531;42.570;23.676;2023-04-16T08:30:14;91453.59;;;14.56;64.18
10958;BME280;5531;42.570;23.676;2023-04-16T08:32:43;91454.81;;;14.65;62.20
10958;BME280;5531;42.570;23.676;2023-04-16T08:35:12;91453.59;;;14.56;61.98
10958;BME280;5531;42.570;23.676;2023-04-16T08:37:41;91445.91;;;14.66;64.63
10958;BME280;5531;42.570;23.676;2023-04-16T08:40:11;91448.44;;;14.90;63.34
10958;BME280;5531;42.570;23.676;2023-04-16T08:42:47;91444.13;;;15.00;63.54
10958;BME280;5531;42.570;23.676;2023-04-16T08:45:17;91448.47;;;15.07;61.42
10958;BME280;5531;42.570;23.676;2023-04-16T08:47:47;91443.81;;;14.97;63.62
10958;BME280;5531;42.570;23.676;2023-04-16T08:50:20;91450.56;;;14.76;61.88
10958;BME280;5531;42.570;23.676;2023-04-16T08:52:52;91433.78;;;15.11;64.19
10958;BME280;5531;42.570;23.676;2023-04-16T08:55:23;91442.88;;;15.20;61.83
10958;BME280;5531;42.570;23.676;2023-04-16T08:57:57;91444.72;;;15.19;62.89
10958;BME280;5531;42.570;23.676;2023-04-16T09:00:28;91448.06;;;15.15;59.44
10958;BME280;5531;42.570;23.676;2023-04-16T09:02:59;91441.31;;;15.36;59.05
10958;BME280;5531;42.570;23.676;2023-04-16T09:05:28;91442.97;;;15.08;56.71
10958;BME280;5531;42.570;23.676;2023-04-16T09:07:58;91442.44;;;14.94;59.29
10958;BME280;5531;42.570;23.676;2023-04-16T09:10:27;91435.28;;;15.24;63.51
10958;BME280;5531;42.570;23.676;2023-04-16T09:12:59;91435.88;;;15.60;63.11
10958;BME280;5531;42.570;23.676;2023-04-16T09:15:28;91430.97;;;15.85;61.78
10958;BME280;5531;42.570;23.676;2023-04-16T09:17:57;91435.34;;;15.97;59.62
10958;BME280;5531;42.570;23.676;2023-04-16T09:20:26;91436.19;;;16.19;57.27
10958;BME280;5531;42.570;23.676;2023-04-16T09:22:55;91435.34;;;16.13;55.22
10958;BME280;5531;42.570;23.676;2023-04-16T09:25:24;91431.50;;;16.04;53.61
10958;BME280;5531;42.570;23.676;2023-04-16T09:27:53;91436.44;;;16.18;55.39
10958;BME280;5531;42.570;23.676;2023-04-16T09:30:26;91436.84;;;16.09;55.45
10958;BME280;5531;42.570;23.676;2023-04-16T09:33:14;91440.66;;;15.63;54.49
10958;BME280;5531;42.570;23.676;2023-04-16T09:35:47;91431.56;;;15.87;58.17
10958;BME280;5531;42.570;23.676;2023-04-16T09:38:17;91433.13;;;16.05;58.97
10958;BME280;5531;42.570;23.676;2023-04-16T09:40:46;91431.44;;;16.21;56.60
10958;BME280;5531;42.570;23.676;2023-04-16T09:43:17;91423.47;;;16.16;58.28
10958;BME280;5531;42.570;23.676;2023-04-16T09:45:53;91428.72;;;16.33;55.73
10958;BME280;5531;42.570;23.676;2023-04-16T09:48:29;91424.72;;;16.53;54.94
10958;BME280;5531;42.570;23.676;2023-04-16T09:50:58;91427.16;;;16.59;54.81
10958;BME280;5531;42.570;23.676;2023-04-16T09:53:29;91423.78;;;16.64;54.86
10958;BME280;5531;42.570;23.676;2023-04-16T09:56:00;91416.25;;;16.78;54.92
10958;BME280;5531;42.570;23.676;2023-04-16T09:58:29;91417.97;;;16.67;54.42
10958;BME280;5531;42.570;23.676;2023-04-16T10:01:04;91419.66;;;16.51;54.92
10958;BME280;5531;42.570;23.676;2023-04-16T10:03:36;91412.97;;;16.93;56.43
10958;BME280;5531;42.570;23.676;2023-04-16T10:06:14;91419.38;;;16.97;54.23
10958;BME280;5531;42.570;23.676;2023-04-16T10:08:45;91425.91;;;17.16;54.10
10958;BME280;5531;42.570;23.676;2023-04-16T10:11:15;91417.09;;;17.38;57.31
10958;BME280;5531;42.570;23.676;2023-04-16T10:13:45;91406.88;;;17.52;51.62
10958;BME280;5531;42.570;23.676;2023-04-16T10:16:17;91410.56;;;17.51;52.12
10958;BME280;5531;42.570;23.676;2023-04-16T10:18:46;91412.25;;;17.30;50.77
10958;BME280;5531;42.570;23.676;2023-04-16T10:21:15;91406.81;;;17.14;52.42
10958;BME280;5531;42.570;23.676;2023-04-16T10:23:45;91398.13;;;17.19;51.92
10958;BME280;5531;42.570;23.676;2023-04-16T10:26:14;91406.00;;;17.09;51.72
10958;BME280;5531;42.570;23.676;2023-04-16T10:28:45;91405.31;;;17.56;53.47
10958;BME280;5531;42.570;23.676;2023-04-16T10:31:17;91406.72;;;18.06;53.28
10958;BME280;5531;42.570;23.676;2023-04-16T10:33:46;91404.06;;;18.01;47.42
10958;BME280;5531;42.570;23.676;2023-04-16T10:36:22;91404.59;;;18.03;48.51
10958;BME280;5531;42.570;23.676;2023-04-16T10:38:57;91396.16;;;18.11;50.04
10958;BME280;5531;42.570;23.676;2023-04-16T10:41:26;91395.75;;;17.87;47.69
10958;BME280;5531;42.570;23.676;2023-04-16T10:44:03;91399.38;;;17.81;50.26
10958;BME280;5531;42.570;23.676;2023-04-16T10:46:39;91398.97;;;17.89;51.01
10958;BME280;5531;42.570;23.676;2023-04-16T10:49:15;91411.25;;;18.06;47.40
10958;BME280;5531;42.570;23.676;2023-04-16T10:51:55;91403.59;;;18.14;47.53
10958;BME280;5531;42.570;23.676;2023-04-16T10:54:26;91395.69;;;18.30;49.72
10958;BME280;5531;42.570;23.676;2023-04-16T10:56:56;91402.41;;;17.90;47.99
10958;BME280;5531;42.570;23.676;2023-04-16T10:59:30;91400.00;;;17.51;47.26
10958;BME280;5531;42.570;23.676;2023-04-16T11:02:06;91409.81;;;17.23;50.65
10958;BME280;5531;42.570;23.676;2023-04-16T11:04:37;91400.28;;;17.22;49.11
10958;BME280;5531;42.570;23.676;2023-04-16T11:07:15;91388.88;;;17.54;51.78
10958;BME280;5531;42.570;23.676;2023-04-16T11:09:46;91390.31;;;17.67;49.83
10958;BME280;5531;42.570;23.676;2023-04-16T11:12:19;91380.56;;;17.83;50.40
10958;BME280;5531;42.570;23.676;2023-04-16T11:14:50;91389.81;;;18.18;49.24
10958;BME280;5531;42.570;23.676;2023-04-16T11:17:27;91388.72;;;18.13;47.65
10958;BME280;5531;42.570;23.676;2023-04-16T11:19:57;91384.81;;;18.26;48.46
10958;BME280;5531;42.570;23.676;2023-04-16T11:22:26;91382.25;;;18.47;49.28
10958;BME280;5531;42.570;23.676;2023-04-16T11:24:55;91381.75;;;18.55;48.43
10958;BME280;5531;42.570;23.676;2023-04-16T11:27:25;91384.72;;;18.06;47.36
10958;BME280;5531;42.570;23.676;2023-04-16T11:29:58;91379.44;;;18.11;48.30
10958;BME280;5531;42.570;23.676;2023-04-16T11:32:33;91374.69;;;18.18;46.82
10958;BME280;5531;42.570;23.676;2023-04-16T11:35:04;91370.78;;;18.36;49.29
10958;BME280;5531;42.570;23.676;2023-04-16T11:37:41;91368.75;;;18.59;48.44
10958;BME280;5531;42.570;23.676;2023-04-16T11:40:11;91373.03;;;18.65;47.30
10958;BME280;5531;42.570;23.676;2023-04-16T11:42:41;91361.78;;;18.32;46.03
10958;BME280;5531;42.570;23.676;2023-04-16T11:45:11;91345.03;;;18.26;48.86
10958;BME280;5531;42.570;23.676;2023-04-16T11:47:47;91341.09;;;18.29;47.89
10958;BME280;5531;42.570;23.676;2023-04-16T11:50:21;91340.09;;;18.56;48.99
10958;BME280;5531;42.570;23.676;2023-04-16T11:52:51;91346.75;;;18.74;48.01
10958;BME280;5531;42.570;23.676;2023-04-16T11:55:21;57190.16;;;-147.01;100.00
10958;BME280;5531;42.570;23.676;2023-04-16T11:57:51;57190.16;;;-147.01;100.00
10958;BME280;5531;42.570;23.676;2023-04-16T12:00:20;57190.16;;;-147.01;100.00
10958;BME280;5531;42.570;23.676;2023-04-16T12:02:52;57190.16;;;-147.01;100.00
10958;BME280;5531;42.570;23.676;2023-04-16T12:05:29;57190.16;;;-147.01;100.00
10958;BME280;5531;42.570;23.676;2023-04-16T12:08:00;57190.16;;;-147.01;100.00
10958;BME280;5531;42.570;23.676;2023-04-16T12:10:30;57190.16;;;-147.01;100.00
10958;BME280;5531;42.570;23.676;2023-04-16T12:13:10;57190.16;;;-147.01;100.00
10958;BME280;5531;42.570;23.676;2023-04-16T12:15:44;57190.16;;;-147.01;100.00
10958;BME280;5531;42.570;23.676;2023-04-16T12:18:17;57190.16;;;-147.01;100.00
10958;BME280;5531;42.570;23.676;2023-04-16T12:20:47;57190.16;;;-147.01;100.00
10958;BME280;5531;42.570;23.676;2023-04-16T12:23:23;57190.16;;;-147.01;100.00
10958;BME280;5531;42.570;23.676;2023-04-16T12:25:53;57190.16;;;-147.01;100.00
10958;BME280;5531;42.570;23.676;2023-04-16T12:28:29;57190.16;;;-147.01;100.00
10958;BME280;5531;42.570;23.676;2023-04-16T12:30:58;57190.16;;;-147.01;100.00
10958;BME280;5531;42.570;23.676;2023-04-16T12:33:30;57190.16;;;-147.01;100.00
10958;BME280;5531;42.570;23.676;2023-04-16T12:35:59;57190.16;;;-147.01;100.00
10958;BME280;5531;42.570;23.676;2023-04-16T12:38:29;57190.16;;;-147.01;100.00
10958;BME280;5531;42.570;23.676;2023-04-16T12:40:58;57190.16;;;-147.01;100.00
10958;BME280;5531;42.570;23.676;2023-04-16T12:43:27;57190.16;;;-147.01;100.00
10958;BME280;5531;42.570;23.676;2023-04-16T12:45:56;57190.16;;;-147.01;100.00
10958;BME280;5531;42.570;23.676;2023-04-16T12:48:26;57190.16;;;-147.01;100.00
10958;BME280;5531;42.570;23.676;2023-04-16T12:50:59;57190.16;;;-147.01;100.00
10958;BME280;5531;42.570;23.676;2023-04-16T12:53:28;57190.16;;;-147.01;100.00
10958;BME280;5531;42.570;23.676;2023-04-16T12:55:57;57190.16;;;-147.01;100.00
10958;BME280;5531;42.570;23.676;2023-04-16T12:58:27;57190.16;;;-147.01;100.00
10958;BME280;5531;42.570;23.676;2023-04-16T13:00:56;57190.16;;;-147.01;100.00
10958;BME280;5531;42.570;23.676;2023-04-16T13:03:25;57190.16;;;-147.01;100.00
10958;BME280;5531;42.570;23.676;2023-04-16T13:06:03;57190.16;;;-147.01;100.00
10958;BME280;5531;42.570;23.676;2023-04-16T13:08:32;57190.16;;;-147.01;100.00
10958;BME280;5531;42.570;23.676;2023-04-16T13:11:02;57190.16;;;-147.01;100.00
10958;BME280;5531;42.570;23.676;2023-04-16T13:13:31;57190.16;;;-147.01;100.00
10958;BME280;5531;42.570;23.676;2023-04-16T13:16:00;57190.16;;;-147.01;100.00
10958;BME280;5531;42.570;23.676;2023-04-16T13:18:34;57190.16;;;-147.01;100.00